Time;durP1;ratioP1;P1;durP2;ratioP2;P2;SDS_P1;SDS_P2;PMS_P1;PMS_P2;Temp;Humidity;BMP_temperature;BMP_pressure;BME280_temperature;BME280_humidity;BME280_pressure;Samples;Min_cycle;Max_cycle;Signal;HPM_P1;HPM_P2
2023/07/26 00:00:55;;;;;;;2.97;2.67;;;13.40;99.90;;;;;;5033367;28;20480;-83
2023/07/26 00:03:21;;;;;;;5.10;3.07;;;13.40;99.90;;;;;;5033274;28;20516;-83
2023/07/26 00:05:48;;;;;;;5.57;3.90;;;13.40;99.90;;;;;;5033307;28;20483;-82
2023/07/26 00:08:15;;;;;;;4.27;3.20;;;13.40;99.90;;;;;;5033239;28;20461;-82
2023/07/26 00:10:45;;;;;;;3.40;2.97;;;13.40;99.90;;;;;;5032931;28;20976;-82
2023/07/26 00:13:12;;;;;;;4.73;3.10;;;13.40;99.90;;;;;;5034362;28;20438;-82
2023/07/26 00:15:39;;;;;;;3.27;2.77;;;13.40;99.90;;;;;;5033028;28;20435;-82
2023/07/26 00:18:07;;;;;;;4.80;3.27;;;13.40;99.90;;;;;;5032922;28;20793;-79
2023/07/26 00:20:34;;;;;;;4.87;2.87;;;13.40;99.90;;;;;;5033147;28;20453;-79
2023/07/26 00:23:02;;;;;;;3.00;2.70;;;13.40;99.90;;;;;;5033197;28;20458;-79
2023/07/26 00:25:29;;;;;;;4.67;3.00;;;13.40;99.90;;;;;;5032739;28;20490;-79
2023/07/26 00:27:56;;;;;;;4.50;3.00;;;13.40;99.90;;;;;;5033154;28;20449;-79
2023/07/26 00:30:23;;;;;;;5.30;2.60;;;13.40;99.90;;;;;;5033081;28;20450;-79
2023/07/26 00:32:49;;;;;;;12.70;3.30;;;13.40;99.90;;;;;;5033100;28;20446;-79
2023/07/26 00:35:22;;;;;;;6.03;3.87;;;13.30;99.90;;;;;;5033061;28;20451;-79
2023/07/26 00:37:49;;;;;;;4.23;2.80;;;13.40;99.90;;;;;;5032794;28;20505;-79
2023/07/26 00:40:16;;;;;;;5.90;3.30;;;13.30;99.90;;;;;;5032721;28;20927;-78
2023/07/26 00:42:43;;;;;;;4.40;3.30;;;13.40;99.90;;;;;;5034217;28;20455;-78
2023/07/26 00:45:10;;;;;;;6.57;4.27;;;13.30;99.90;;;;;;5037421;28;20828;-78
2023/07/26 00:47:38;;;;;;;13.00;4.20;;;13.40;99.90;;;;;;5036647;28;20799;-78
2023/07/26 00:50:06;;;;;;;4.83;3.03;;;13.40;99.90;;;;;;5036806;28;20458;-78
2023/07/26 00:52:35;;;;;;;3.83;3.30;;;13.30;99.90;;;;;;5036526;28;20458;-78
2023/07/26 00:55:03;;;;;;;2.00;1.80;;;13.30;99.90;;;;;;5036725;28;20457;-79
2023/07/26 00:57:31;;;;;;;7.03;3.00;;;13.30;99.90;;;;;;5037183;28;20800;-79
2023/07/26 00:59:58;;;;;;;5.10;2.70;;;13.30;99.90;;;;;;5036694;28;20791;-79
2023/07/26 01:02:25;;;;;;;2.33;2.20;;;13.30;99.90;;;;;;5036909;28;20467;-79
2023/07/26 01:04:52;;;;;;;4.10;2.70;;;13.30;99.90;;;;;;5036256;28;20488;-79
2023/07/26 01:07:24;;;;;;;6.30;2.20;;;13.30;99.90;;;;;;5036556;28;20427;-79
2023/07/26 01:10:02;;;;;;;7.07;3.10;;;13.20;99.90;;;;;;5036490;28;20434;-79
2023/07/26 01:12:37;;;;;;;2.40;1.67;;;13.30;99.90;;;;;;5036194;28;20958;-79
2023/07/26 01:15:07;;;;;;;3.97;2.70;;;13.30;99.90;;;;;;5036359;28;20431;-79
2023/07/26 01:17:34;;;;;;;4.20;2.90;;;13.30;99.90;;;;;;5036093;28;20435;-80
2023/07/26 01:20:01;;;;;;;8.17;3.17;;;13.30;99.90;;;;;;5036005;28;20930;-80
2023/07/26 01:22:29;;;;;;;2.93;1.87;;;13.30;99.90;;;;;;5036202;28;20470;-79
2023/07/26 01:24:56;;;;;;;8.33;2.97;;;13.30;99.90;;;;;;5035752;28;20820;-80
2023/07/26 01:27:23;;;;;;;5.10;3.03;;;13.30;99.90;;;;;;5036186;28;20466;-79
2023/07/26 01:29:54;;;;;;;3.60;2.40;;;13.30;99.90;;;;;;5036079;28;20451;-79
2023/07/26 01:32:23;;;;;;;3.00;2.50;;;13.10;99.90;;;;;;5036056;28;20470;-79
2023/07/26 01:34:50;;;;;;;4.83;2.43;;;13.10;99.90;;;;;;5035694;28;20984;-79
2023/07/26 01:37:19;;;;;;;4.67;2.97;;;13.10;99.90;;;;;;5035974;28;20446;-79
2023/07/26 01:39:47;;;;;;;3.73;1.50;;;13.10;99.90;;;;;;5035632;28;20789;-79
2023/07/26 01:42:15;;;;;;;2.13;2.00;;;13.10;99.90;;;;;;5035497;28;20475;-79
2023/07/26 01:44:41;;;;;;;2.87;2.13;;;13.10;99.90;;;;;;5035836;28;20451;-79
2023/07/26 01:47:08;;;;;;;2.27;1.80;;;13.00;99.90;;;;;;5035416;28;21034;-79
2023/07/26 01:49:35;;;;;;;2.50;1.93;;;13.00;99.90;;;;;;5035516;28;20926;-80
2023/07/26 01:52:02;;;;;;;2.90;1.60;;;12.90;99.90;;;;;;5035333;28;21012;-80
2023/07/26 01:54:28;;;;;;;2.00;1.83;;;12.90;99.90;;;;;;5034723;28;20822;-80
2023/07/26 01:56:56;;;;;;;2.50;1.73;;;12.90;99.90;;;;;;5035612;28;20447;-80
2023/07/26 01:59:23;;;;;;;4.20;1.90;;;12.80;99.90;;;;;;5035311;28;20430;-80
2023/07/26 02:01:50;;;;;;;3.97;2.27;;;12.80;99.90;;;;;;5035411;28;20481;-79
2023/07/26 02:04:17;;;;;;;2.40;2.20;;;12.80;99.90;;;;;;5035461;28;20542;-80
2023/07/26 02:06:43;;;;;;;3.10;2.30;;;12.90;99.90;;;;;;5035337;28;20479;-79
2023/07/26 02:09:10;;;;;;;2.40;2.20;;;12.90;99.90;;;;;;5035374;28;20457;-79
2023/07/26 02:11:37;;;;;;;2.70;2.50;;;12.80;99.90;;;;;;5035282;28;20455;-80
2023/07/26 02:14:05;;;;;;;4.90;2.50;;;12.80;99.90;;;;;;5035284;28;20830;-80
2023/07/26 02:16:31;;;;;;;3.60;2.60;;;12.90;99.90;;;;;;5034956;28;20442;-80
2023/07/26 02:18:58;;;;;;;2.10;1.90;;;12.90;99.90;;;;;;5035202;28;20454;-80
2023/07/26 02:21:25;;;;;;;5.33;3.03;;;12.90;99.90;;;;;;5035090;28;20470;-80
2023/07/26 02:23:52;;;;;;;2.50;2.30;;;12.90;99.90;;;;;;5035018;28;20438;-80
2023/07/26 02:26:18;;;;;;;3.40;2.87;;;12.90;99.90;;;;;;5034526;28;20497;-85
2023/07/26 02:28:45;;;;;;;5.00;2.00;;;12.90;99.90;;;;;;5035124;28;20446;-84
2023/07/26 02:31:13;;;;;;;3.17;2.23;;;12.80;99.90;;;;;;5034902;28;20469;-85
2023/07/26 02:33:40;;;;;;;8.00;2.63;;;12.70;99.90;;;;;;5034755;28;20443;-85
2023/07/26 02:36:07;;;;;;;3.37;1.93;;;12.80;99.90;;;;;;5034960;28;20449;-84
2023/07/26 02:38:33;;;;;;;2.20;2.00;;;12.90;99.90;;;;;;5034847;28;20457;-84
2023/07/26 02:41:00;;;;;;;2.30;1.97;;;12.80;99.90;;;;;;5034715;28;20477;-84
2023/07/26 02:43:27;;;;;;;2.43;2.23;;;12.80;99.90;;;;;;5034811;28;20817;-85
2023/07/26 02:45:54;;;;;;;2.50;2.30;;;12.90;99.90;;;;;;5034387;28;20478;-85
2023/07/26 02:48:22;;;;;;;3.23;2.93;;;12.80;99.90;;;;;;5034695;28;20447;-85
2023/07/26 02:50:48;;;;;;;2.33;2.10;;;12.90;99.90;;;;;;5034506;28;20474;-85
2023/07/26 02:53:15;;;;;;;3.23;1.70;;;13.00;99.90;;;;;;5034646;28;20457;-85
2023/07/26 02:55:42;;;;;;;2.80;1.70;;;12.90;99.90;;;;;;5034270;28;20816;-85
2023/07/26 02:58:09;;;;;;;3.23;1.93;;;13.00;99.90;;;;;;5034162;28;20966;-85
2023/07/26 03:00:36;;;;;;;2.53;2.33;;;13.00;99.90;;;;;;5034388;28;20818;-85
2023/07/26 03:03:03;;;;;;;2.47;1.97;;;13.00;99.90;;;;;;5034085;28;20488;-85
2023/07/26 03:05:31;;;;;;;2.70;1.80;;;13.00;99.90;;;;;;5033349;28;20493;-80
2023/07/26 03:07:58;;;;;;;2.43;2.03;;;12.90;99.90;;;;;;5033864;28;20811;-80
2023/07/26 03:10:24;;;;;;;3.13;1.87;;;12.90;99.90;;;;;;5034088;28;20465;-80
2023/07/26 03:12:51;;;;;;;2.30;1.40;;;12.90;99.90;;;;;;5034118;28;20451;-80
2023/07/26 03:15:18;;;;;;;7.47;2.50;;;12.90;99.90;;;;;;5033829;28;20919;-80
2023/07/26 03:17:45;;;;;;;4.60;1.93;;;12.80;99.90;;;;;;5034042;28;20537;-80
2023/07/26 03:20:12;;;;;;;2.47;2.23;;;12.90;99.90;;;;;;5034446;28;20461;-81
2023/07/26 03:22:40;;;;;;;4.80;2.20;;;12.90;99.90;;;;;;5033601;28;20467;-80
2023/07/26 03:25:08;;;;;;;2.23;1.67;;;12.90;99.90;;;;;;5033518;28;20939;-81
2023/07/26 03:27:35;;;;;;;2.70;2.23;;;12.90;99.90;;;;;;5033923;28;20466;-83
2023/07/26 03:30:01;;;;;;;3.73;1.57;;;12.90;99.90;;;;;;5033915;28;20454;-83
2023/07/26 03:32:28;;;;;;;4.23;1.80;;;12.90;99.90;;;;;;5033740;28;20471;-83
2023/07/26 03:34:55;;;;;;;1.57;1.30;;;12.90;99.90;;;;;;5033594;28;20968;-83
2023/07/26 03:37:22;;;;;;;2.00;1.77;;;12.80;99.90;;;;;;5033838;28;20447;-83
2023/07/26 03:39:50;;;;;;;1.30;1.17;;;12.90;99.90;;;;;;5033756;28;20446;-83
2023/07/26 03:42:16;;;;;;;2.47;2.17;;;12.90;99.90;;;;;;5033698;28;20463;-83
2023/07/26 03:44:43;;;;;;;2.03;1.50;;;12.90;99.90;;;;;;5033415;28;20438;-83
2023/07/26 03:47:10;;;;;;;1.93;1.30;;;12.80;99.90;;;;;;5033228;28;21020;-83
2023/07/26 03:49:37;;;;;;;1.17;1.07;;;12.80;99.90;;;;;;5033693;28;20496;-82
2023/07/26 03:52:04;;;;;;;1.73;1.37;;;12.80;99.90;;;;;;5033499;28;20558;-82
2023/07/26 03:54:31;;;;;;;3.37;1.60;;;12.80;99.90;;;;;;5033536;28;20461;-83
2023/07/26 03:56:59;;;;;;;1.30;1.20;;;12.70;99.90;;;;;;5033535;28;20441;-83
2023/07/26 03:59:26;;;;;;;1.60;1.50;;;12.80;99.90;;;;;;5033176;28;20946;-83
2023/07/26 04:01:53;;;;;;;2.17;1.93;;;12.80;99.90;;;;;;5033059;28;20471;-83
2023/07/26 04:04:19;;;;;;;1.50;1.40;;;12.70;99.90;;;;;;5033119;28;20447;-83
2023/07/26 04:06:46;;;;;;;1.30;1.10;;;12.80;99.90;;;;;;5033269;28;20478;-83
2023/07/26 04:09:13;;;;;;;2.30;2.10;;;12.60;99.90;;;;;;5033233;28;20454;-82
2023/07/26 04:11:39;;;;;;;1.93;1.70;;;12.70;99.90;;;;;;5033242;28;20474;-83
2023/07/26 04:14:07;;;;;;;3.57;2.57;;;12.70;99.90;;;;;;5032974;28;20450;-82
2023/07/26 04:16:34;;;;;;;2.20;1.47;;;12.80;99.90;;;;;;5033195;28;20442;-85
2023/07/26 04:19:01;;;;;;;2.83;1.37;;;12.80;99.90;;;;;;5039659;28;20450;-84
2023/07/26 04:21:28;;;;;;;4.17;1.90;;;12.90;99.90;;;;;;5039823;28;20485;-84
2023/07/26 04:23:54;;;;;;;2.07;1.13;;;13.00;99.90;;;;;;5039605;28;20443;-84
2023/07/26 04:26:21;;;;;;;1.90;1.80;;;13.00;99.90;;;;;;5039398;28;20493;-83
2023/07/26 04:28:48;;;;;;;2.23;1.63;;;13.00;99.90;;;;;;5039784;28;20449;-83
2023/07/26 04:31:16;;;;;;;3.20;2.30;;;13.10;99.90;;;;;;5039382;28;20451;-83
2023/07/26 04:33:43;;;;;;;2.27;2.00;;;13.20;99.90;;;;;;5039723;28;20446;-82
2023/07/26 04:36:09;;;;;;;1.73;1.63;;;13.20;99.90;;;;;;5039577;28;20457;-82
2023/07/26 04:38:36;;;;;;;3.37;1.70;;;13.20;99.90;;;;;;5039365;28;20426;-82
2023/07/26 04:41:04;;;;;;;2.30;1.87;;;13.20;99.90;;;;;;5039244;28;21017;-82
2023/07/26 04:43:31;;;;;;;2.97;2.50;;;13.30;99.90;;;;;;5039664;28;20430;-82
2023/07/26 04:45:58;;;;;;;2.07;1.87;;;13.30;99.90;;;;;;5039525;28;20462;-82
2023/07/26 04:48:26;;;;;;;2.00;1.80;;;13.30;99.90;;;;;;5039883;28;20446;-82
2023/07/26 04:50:53;;;;;;;2.17;1.97;;;13.30;99.90;;;;;;5039508;28;20466;-82
2023/07/26 04:53:19;;;;;;;5.73;2.27;;;13.30;99.90;;;;;;5039534;28;20461;-82
2023/07/26 04:55:47;;;;;;;5.80;2.23;;;13.30;99.90;;;;;;5039556;28;20447;-84
2023/07/26 04:58:14;;;;;;;1.90;1.70;;;13.30;99.90;;;;;;5039513;28;20451;-84
2023/07/26 05:00:42;;;;;;;2.27;1.83;;;13.30;99.90;;;;;;5039074;28;20454;-84
2023/07/26 05:03:10;;;;;;;2.87;2.40;;;13.30;99.90;;;;;;5039506;28;20454;-84
2023/07/26 05:05:38;;;;;;;2.77;2.00;;;13.30;99.90;;;;;;5039232;28;20458;-84
2023/07/26 05:08:06;;;;;;;2.03;1.53;;;13.20;99.90;;;;;;5039003;28;20489;-84
2023/07/26 05:10:33;;;;;;;2.10;2.00;;;13.30;99.90;;;;;;5039284;28;20453;-84
2023/07/26 05:13:00;;;;;;;2.37;2.07;;;13.40;99.90;;;;;;5039441;28;20453;-85
2023/07/26 05:15:27;;;;;;;4.80;1.60;;;13.40;99.90;;;;;;5039803;28;20435;-84
2023/07/26 05:17:54;;;;;;;5.43;2.30;;;13.40;99.90;;;;;;5039258;28;20474;-84
2023/07/26 05:20:20;;;;;;;3.90;2.17;;;13.40;99.90;;;;;;5038964;28;20946;-84
2023/07/26 05:22:48;;;;;;;3.83;3.40;;;13.40;99.90;;;;;;5038967;28;20470;-84
2023/07/26 05:25:15;;;;;;;2.73;2.00;;;13.50;99.90;;;;;;5039018;28;20851;-84
2023/07/26 05:27:42;;;;;;;1.80;1.70;;;13.50;99.90;;;;;;5038983;28;20831;-83
2023/07/26 05:30:09;;;;;;;2.57;2.23;;;13.50;99.90;;;;;;5035535;28;20458;-84
2023/07/26 05:32:36;;;;;;;2.63;2.43;;;13.50;99.90;;;;;;5035816;28;20462;-84
2023/07/26 05:35:03;;;;;;;2.67;2.47;;;13.60;99.90;;;;;;5036041;28;20446;-84
2023/07/26 05:37:34;;;;;;;2.10;2.00;;;13.50;99.90;;;;;;5036010;28;20435;-84
2023/07/26 05:40:02;;;;;;;2.70;1.87;;;13.50;99.90;;;;;;5035993;28;20453;-84
2023/07/26 05:42:29;;;;;;;1.67;1.57;;;13.60;99.90;;;;;;5035889;28;20513;-84
2023/07/26 05:44:56;;;;;;;2.07;1.73;;;13.60;99.90;;;;;;5035539;28;20906;-84
2023/07/26 05:47:23;;;;;;;3.07;2.20;;;13.70;99.90;;;;;;5035461;28;20482;-84
2023/07/26 05:49:49;;;;;;;2.40;1.77;;;13.70;99.90;;;;;;5035762;28;20457;-83
2023/07/26 05:52:16;;;;;;;1.73;1.50;;;13.70;99.90;;;;;;5035373;28;21023;-83
2023/07/26 05:54:43;;;;;;;4.93;2.80;;;13.70;99.90;;;;;;5035688;28;20446;-82
2023/07/26 05:57:11;;;;;;;1.30;1.20;;;13.80;99.90;;;;;;5035334;28;21052;-82
2023/07/26 05:59:38;;;;;;;2.77;1.57;;;13.80;99.90;;;;;;5035265;28;20453;-83
2023/07/26 06:02:05;;;;;;;2.03;1.93;;;13.90;99.90;;;;;;5035233;28;20462;-83
2023/07/26 06:04:32;;;;;;;2.03;1.83;;;13.90;99.90;;;;;;5035519;28;20446;-83
2023/07/26 06:06:59;;;;;;;4.50;2.43;;;13.90;99.90;;;;;;5035096;28;20482;-82
2023/07/26 06:09:26;;;;;;;2.17;1.97;;;13.90;99.90;;;;;;5035148;28;20446;-83
2023/07/26 06:11:52;;;;;;;2.23;2.03;;;13.90;99.90;;;;;;5035267;28;20504;-82
2023/07/26 06:14:21;;;;;;;6.50;1.83;;;13.90;99.90;;;;;;5035360;28;20455;-82
2023/07/26 06:16:48;;;;;;;4.20;2.47;;;13.90;99.90;;;;;;5035244;28;20447;-83
2023/07/26 06:19:15;;;;;;;2.50;1.90;;;13.90;99.90;;;;;;5035235;28;20446;-83
2023/07/26 06:21:41;;;;;;;2.03;1.70;;;13.90;99.90;;;;;;5034758;28;20482;-83
2023/07/26 06:24:08;;;;;;;1.50;1.40;;;13.80;99.90;;;;;;5034878;28;20445;-83
2023/07/26 06:26:35;;;;;;;2.37;1.90;;;13.80;99.90;;;;;;5034693;28;20585;-83
2023/07/26 06:29:02;;;;;;;1.93;1.77;;;13.80;99.90;;;;;;5035069;28;20449;-83
2023/07/26 06:31:30;;;;;;;1.73;1.60;;;13.90;99.90;;;;;;5034899;28;20843;-83
2023/07/26 06:33:57;;;;;;;1.53;1.43;;;14.10;99.90;;;;;;5034658;28;20976;-83
2023/07/26 06:36:24;;;;;;;3.43;1.67;;;14.00;99.90;;;;;;5034626;28;20973;-83
2023/07/26 06:38:50;;;;;;;2.07;1.87;;;14.00;99.90;;;;;;5034581;28;20446;-83
2023/07/26 06:41:17;;;;;;;6.33;1.97;;;14.00;99.90;;;;;;5034594;28;20478;-83
2023/07/26 06:43:44;;;;;;;1.43;1.33;;;14.00;99.90;;;;;;5034529;28;20506;-83
2023/07/26 06:46:11;;;;;;;2.23;1.80;;;14.00;99.90;;;;;;5034435;28;20823;-83
2023/07/26 06:48:39;;;;;;;2.60;2.40;;;14.00;99.90;;;;;;5034587;28;20485;-83
2023/07/26 06:51:05;;;;;;;2.80;1.87;;;14.00;99.90;;;;;;5034464;28;20479;-83
2023/07/26 06:53:32;;;;;;;1.87;1.73;;;14.10;99.90;;;;;;5034563;28;20439;-83
2023/07/26 06:55:59;;;;;;;1.83;1.50;;;14.10;99.90;;;;;;5034268;28;20431;-83
2023/07/26 06:58:26;;;;;;;1.63;1.27;;;14.10;99.90;;;;;;5034494;28;20442;-82
2023/07/26 07:00:54;;;;;;;1.77;1.67;;;14.10;99.90;;;;;;5034061;28;20974;-83
2023/07/26 07:03:20;;;;;;;2.13;1.60;;;14.10;99.90;;;;;;5034300;28;20524;-83
2023/07/26 07:05:48;;;;;;;2.33;2.07;;;14.10;99.90;;;;;;5034367;28;20454;-83
2023/07/26 07:08:15;;;;;;;1.30;1.20;;;14.10;99.90;;;;;;5034249;28;20487;-83
2023/07/26 07:10:42;;;;;;;3.57;1.90;;;14.10;99.90;;;;;;5034143;28;20810;-83
2023/07/26 07:13:09;;;;;;;3.30;2.10;;;14.00;99.90;;;;;;5034217;28;20451;-84
2023/07/26 07:15:36;;;;;;;1.33;1.20;;;14.00;99.90;;;;;;5034162;28;20453;-83
2023/07/26 07:18:02;;;;;;;2.07;1.80;;;14.00;99.90;;;;;;5034119;28;20447;-82
2023/07/26 07:20:29;;;;;;;2.17;1.97;;;13.90;99.90;;;;;;5034686;28;20457;-82
2023/07/26 07:22:58;;;;;;;2.60;2.40;;;13.90;99.90;;;;;;5034082;28;20454;-86
2023/07/26 07:25:24;;;;;;;4.50;1.97;;;13.80;99.90;;;;;;5033929;28;20856;-86
2023/07/26 07:27:51;;;;;;;3.27;1.73;;;13.70;99.90;;;;;;5033813;28;20470;-86
2023/07/26 07:30:18;;;;;;;2.00;1.50;;;13.60;99.90;;;;;;5034046;28;20454;-86
2023/07/26 07:32:45;;;;;;;2.10;1.60;;;13.50;99.90;;;;;;5033651;28;20471;-85
2023/07/26 07:35:11;;;;;;;2.03;1.87;;;13.50;99.90;;;;;;5033965;28;20451;-85
2023/07/26 07:37:38;;;;;;;1.63;1.53;;;13.40;99.90;;;;;;5033560;28;20966;-85
2023/07/26 07:40:08;;;;;;;1.93;1.73;;;13.30;99.90;;;;;;5033654;28;20457;-85
2023/07/26 07:42:35;;;;;;;1.93;1.47;;;13.30;99.90;;;;;;5033750;28;20463;-85
2023/07/26 07:45:02;;;;;;;2.63;2.10;;;13.30;99.90;;;;;;5033671;28;20455;-80
2023/07/26 07:47:28;;;;;;;2.00;1.70;;;13.30;99.90;;;;;;5033327;28;20478;-80
2023/07/26 07:49:55;;;;;;;1.53;1.43;;;13.20;99.90;;;;;;5033649;28;20434;-80
2023/07/26 07:52:22;;;;;;;3.47;2.60;;;13.20;99.90;;;;;;5033006;28;20470;-80
2023/07/26 07:54:49;;;;;;;2.13;1.83;;;13.10;99.90;;;;;;5033975;28;20433;-80
2023/07/26 07:57:17;;;;;;;8.03;1.60;;;13.10;99.90;;;;;;5033488;28;20454;-78
2023/07/26 07:59:44;;;;;;;1.67;1.33;;;13.00;99.90;;;;;;5033209;28;20946;-79
2023/07/26 08:02:11;;;;;;;1.63;1.53;;;13.00;99.90;;;;;;5033375;28;20473;-78
2023/07/26 08:04:38;;;;;;;1.73;1.60;;;13.00;99.90;;;;;;5033416;28;20450;-78
2023/07/26 08:07:05;;;;;;;1.60;1.27;;;13.10;99.90;;;;;;5033361;28;20455;-79
2023/07/26 08:09:32;;;;;;;2.17;1.40;;;13.10;99.90;;;;;;5033107;28;20818;-79
2023/07/26 08:11:59;;;;;;;2.40;1.23;;;13.10;99.90;;;;;;5033224;28;20476;-79
2023/07/26 08:14:27;;;;;;;1.30;1.20;;;13.10;99.90;;;;;;5033303;28;20447;-79
2023/07/26 08:16:54;;;;;;;0.80;0.77;;;13.10;99.90;;;;;;5033240;28;20451;-79
2023/07/26 08:19:21;;;;;;;1.07;1.00;;;13.10;99.90;;;;;;5032957;28;20956;-80
2023/07/26 08:21:47;;;;;;;0.70;0.70;;;12.90;99.90;;;;;;5033052;28;20474;-80
2023/07/26 08:24:14;;;;;;;1.03;1.03;;;12.70;99.90;;;;;;5033027;28;20546;-79
2023/07/26 08:26:41;;;;;;;0.90;0.90;;;12.70;99.90;;;;;;5032822;28;20477;-80
2023/07/26 08:29:08;;;;;;;0.77;0.70;;;12.50;99.90;;;;;;5033093;28;20486;-80
2023/07/26 08:31:36;;;;;;;1.27;0.87;;;12.50;99.90;;;;;;5033089;28;20562;-80
2023/07/26 08:34:03;;;;;;;1.00;0.90;;;12.40;99.90;;;;;;5032794;28;20454;-80
2023/07/26 08:36:29;;;;;;;0.80;0.80;;;12.50;99.90;;;;;;5032826;28;20927;-80
2023/07/26 08:38:56;;;;;;;0.63;0.60;;;12.70;99.90;;;;;;5032750;28;20439;-80
2023/07/26 08:41:23;;;;;;;1.17;1.07;;;12.70;99.90;;;;;;5032995;28;20462;-83
2023/07/26 08:43:54;;;;;;;0.97;0.70;;;12.70;99.90;;;;;;5033025;28;20458;-83
2023/07/26 08:46:23;;;;;;;0.83;0.70;;;12.70;99.90;;;;;;5033091;28;20439;-83
2023/07/26 08:48:52;;;;;;;0.53;0.53;;;12.90;99.90;;;;;;5032892;28;20493;-82
2023/07/26 08:51:20;;;;;;;0.87;0.87;;;12.70;99.90;;;;;;5032894;28;20830;-83
2023/07/26 08:53:48;;;;;;;1.30;0.80;;;12.80;99.90;;;;;;5032925;28;20455;-83
2023/07/26 08:56:15;;;;;;;0.70;0.70;;;12.70;99.90;;;;;;5032889;28;20457;-83
2023/07/26 08:58:43;;;;;;;0.80;0.80;;;12.70;99.90;;;;;;5032707;28;20434;-83
2023/07/26 09:01:11;;;;;;;0.50;0.50;;;12.70;99.90;;;;;;5032768;28;20470;-83
2023/07/26 09:03:37;;;;;;;0.63;0.50;;;12.50;99.90;;;;;;5033504;28;20431;-83
2023/07/26 09:06:08;;;;;;;0.70;0.60;;;12.50;99.90;;;;;;5036067;28;20451;-82
2023/07/26 09:08:35;;;;;;;1.03;1.03;;;12.60;99.90;;;;;;5036853;28;20466;-82
2023/07/26 09:11:03;;;;;;;0.40;0.40;;;12.80;99.90;;;;;;5036321;28;20536;-81
2023/07/26 09:13:30;;;;;;;0.60;0.60;;;12.80;99.90;;;;;;5036486;28;20505;-81
2023/07/26 09:16:00;;;;;;;0.50;0.50;;;12.80;99.90;;;;;;5036237;28;20437;-81
2023/07/26 09:18:28;;;;;;;1.23;0.60;;;12.70;99.90;;;;;;5036469;28;20440;-81
2023/07/26 09:21:02;;;;;;;0.50;0.50;;;12.70;99.90;;;;;;5036052;28;20474;-81
2023/07/26 09:23:30;;;;;;;1.20;0.90;;;12.80;99.90;;;;;;5035995;28;20430;-81
2023/07/26 09:25:57;;;;;;;0.93;0.70;;;12.80;99.90;;;;;;5035767;28;20489;-81
2023/07/26 09:28:24;;;;;;;0.90;0.60;;;12.90;99.90;;;;;;5036171;28;20478;-81
2023/07/26 09:30:53;;;;;;;0.50;0.50;;;12.90;99.90;;;;;;5036102;28;20501;-81
2023/07/26 09:33:23;;;;;;;0.57;0.57;;;12.90;99.90;;;;;;5035846;28;20441;-83
2023/07/26 09:35:52;;;;;;;0.50;0.50;;;12.80;99.90;;;;;;5035820;28;20906;-83
2023/07/26 09:38:23;;;;;;;4.63;0.70;;;12.90;99.90;;;;;;5036043;28;20455;-83
2023/07/26 09:40:51;;;;;;;0.60;0.60;;;12.90;99.90;;;;;;5035701;28;20478;-84
2023/07/26 09:43:29;;;;;;;2.73;1.20;;;13.00;99.90;;;;;;5035930;28;20457;-82
2023/07/26 09:46:00;;;;;;;0.40;0.40;;;13.10;99.90;;;;;;5035964;28;20435;-82
2023/07/26 09:48:26;;;;;;;0.67;0.60;;;13.10;99.90;;;;;;5035600;28;20463;-82
2023/07/26 09:50:56;;;;;;;0.60;0.60;;;13.20;99.90;;;;;;5035691;28;20475;-82
2023/07/26 09:53:23;;;;;;;0.70;0.70;;;13.30;99.90;;;;;;5035715;28;20453;-82
2023/07/26 09:55:52;;;;;;;0.83;0.80;;;13.60;99.90;;;;;;5035676;28;20447;-82
2023/07/26 09:58:21;;;;;;;0.60;0.60;;;13.80;99.90;;;;;;5035441;28;20813;-83
2023/07/26 10:00:50;;;;;;;0.63;0.63;;;14.10;99.90;;;;;;5035320;28;20451;-83
2023/07/26 10:03:20;;;;;;;0.73;0.53;;;14.40;99.90;;;;;;5035601;28;20451;-83
2023/07/26 10:05:50;;;;;;;1.03;0.50;;;14.60;99.90;;;;;;5035327;28;20923;-83
2023/07/26 10:08:19;;;;;;;0.93;0.83;;;15.00;99.90;;;;;;5035228;28;20459;-80
2023/07/26 10:10:48;;;;;;;0.87;0.77;;;15.30;99.90;;;;;;5035192;28;20488;-81
2023/07/26 10:13:18;;;;;;;1.10;0.67;;;15.40;99.90;;;;;;5035419;28;20441;-81
2023/07/26 10:15:48;;;;;;;0.70;0.70;;;15.50;99.90;;;;;;5034969;28;20438;-81
2023/07/26 10:18:16;;;;;;;0.77;0.60;;;15.60;99.90;;;;;;5035574;28;20454;-81
2023/07/26 10:20:45;;;;;;;0.60;0.60;;;15.60;99.90;;;;;;5035205;28;20451;-81
2023/07/26 10:23:12;;;;;;;1.07;0.70;;;15.50;99.90;;;;;;5035151;28;20454;-81
2023/07/26 10:25:41;;;;;;;0.80;0.80;;;15.30;99.90;;;;;;5034854;28;20491;-82
2023/07/26 10:28:09;;;;;;;0.93;0.80;;;15.20;99.90;;;;;;5034757;28;20482;-82
2023/07/26 10:30:38;;;;;;;0.53;0.53;;;15.20;99.90;;;;;;5035666;28;20454;-82
2023/07/26 10:33:11;;;;;;;1.27;0.77;;;15.20;99.90;;;;;;5034710;28;20454;-82
2023/07/26 10:35:41;;;;;;;0.73;0.73;;;15.20;99.90;;;;;;5034779;28;20427;-82
2023/07/26 10:38:08;;;;;;;1.10;0.70;;;15.30;99.90;;;;;;5034943;28;20438;-82
2023/07/26 10:40:38;;;;;;;0.80;0.60;;;15.30;99.90;;;;;;5034470;28;20951;-82
2023/07/26 10:43:41;;;;;;;0.93;0.67;;;15.20;99.90;;;;;;5034593;28;20415;-82
2023/07/26 10:46:14;;;;;;;0.90;0.80;;;15.10;99.90;;;;;;5034799;28;20439;-82
2023/07/26 10:48:41;;;;;;;0.87;0.70;;;15.00;99.90;;;;;;5034369;28;20467;-83
2023/07/26 10:51:31;;;;;;;0.70;0.70;;;14.90;99.90;;;;;;5034394;28;20458;-81
2023/07/26 10:53:58;;;;;;;1.30;1.03;;;14.70;99.90;;;;;;5034363;28;20443;-81
2023/07/26 10:56:27;;;;;;;3.53;0.70;;;14.60;99.90;;;;;;5035391;28;20537;-81
2023/07/26 10:58:54;;;;;;;0.77;0.77;;;14.60;99.90;;;;;;5034537;28;20446;-81
2023/07/26 11:01:33;;;;;;;0.80;0.53;;;14.60;99.90;;;;;;5034146;28;20517;-81
2023/07/26 11:04:00;;;;;;;0.63;0.60;;;14.70;99.90;;;;;;5034472;28;20439;-81
2023/07/26 11:06:53;;;;;;;0.87;0.87;;;14.90;99.90;;;;;;5034416;28;20457;-83
2023/07/26 11:09:24;;;;;;;1.00;0.60;;;15.10;99.90;;;;;;5034050;28;20470;-84
2023/07/26 11:11:58;;;;;;;1.43;0.93;;;15.20;99.90;;;;;;5034319;28;20498;-84
2023/07/26 11:14:25;;;;;;;1.30;0.80;;;15.20;99.90;;;;;;5034062;28;20456;-84
2023/07/26 11:16:54;;;;;;;0.83;0.50;;;15.70;99.90;;;;;;5034014;28;20439;-84
2023/07/26 11:19:21;;;;;;;1.50;0.90;;;16.00;99.90;;;;;;5033963;28;20443;-84
2023/07/26 11:21:48;;;;;;;1.00;0.83;;;16.20;99.90;;;;;;5033890;28;20462;-84
2023/07/26 11:24:14;;;;;;;2.13;0.90;;;16.20;99.90;;;;;;5034057;28;20454;-84
2023/07/26 11:26:43;;;;;;;1.80;0.87;;;16.30;99.90;;;;;;5032965;28;20479;-84
2023/07/26 11:29:10;;;;;;;0.70;0.70;;;16.60;99.90;;;;;;5034250;28;20838;-84
2023/07/26 11:31:37;;;;;;;0.67;0.67;;;16.50;99.90;;;;;;5033843;28;20466;-83
2023/07/26 11:34:16;;;;;;;0.97;0.80;;;16.70;99.90;;;;;;5033565;28;20499;-84
2023/07/26 11:36:44;;;;;;;0.60;0.57;;;16.90;99.90;;;;;;5034010;28;20431;-84
2023/07/26 11:39:21;;;;;;;0.57;0.57;;;16.90;99.90;;;;;;5033628;28;20451;-84
2023/07/26 11:41:49;;;;;;;1.03;0.63;;;17.00;99.90;;;;;;5034180;28;20557;-83
2023/07/26 11:44:16;;;;;;;0.90;0.70;;;17.00;99.90;;;;;;5033330;28;20981;-82
2023/07/26 11:46:44;;;;;;;0.53;0.53;;;17.10;99.90;;;;;;5033711;28;20782;-83
2023/07/26 11:49:12;;;;;;;0.70;0.70;;;17.20;99.90;;;;;;5033539;28;20491;-84
2023/07/26 11:51:41;;;;;;;1.03;0.80;;;17.30;99.90;;;;;;5033623;28;20547;-83
2023/07/26 11:54:11;;;;;;;0.83;0.63;;;17.40;99.90;;;;;;5033522;28;20439;-83
2023/07/26 11:56:38;;;;;;;2.60;0.70;;;17.30;99.90;;;;;;5033592;28;20450;-83
2023/07/26 11:59:05;;;;;;;1.17;0.50;;;17.40;99.90;;;;;;5033497;28;20447;-83
2023/07/26 12:01:34;;;;;;;1.33;0.80;;;17.30;99.90;;;;;;5033476;28;20467;-83
2023/07/26 12:04:01;;;;;;;0.60;0.60;;;17.40;99.90;;;;;;5033458;28;20508;-83
2023/07/26 12:06:33;;;;;;;0.70;0.70;;;17.40;99.90;;;;;;5033123;28;20451;-82
2023/07/26 12:09:10;;;;;;;3.03;0.90;;;17.50;99.90;;;;;;5032972;28;20478;-82
2023/07/26 12:11:38;;;;;;;0.70;0.60;;;17.40;99.90;;;;;;5034015;28;20462;-82
2023/07/26 12:14:05;;;;;;;2.20;0.70;;;17.40;99.90;;;;;;5033124;28;20784;-82
2023/07/26 12:16:32;;;;;;;0.70;0.70;;;17.40;99.90;;;;;;5033309;28;20455;-83
2023/07/26 12:19:00;;;;;;;1.13;0.77;;;17.60;99.90;;;;;;5033333;28;20442;-82
2023/07/26 12:21:28;;;;;;;0.67;0.67;;;17.70;99.90;;;;;;5033235;28;20484;-82
2023/07/26 12:23:56;;;;;;;0.67;0.50;;;17.60;99.90;;;;;;5033146;28;20465;-83
2023/07/26 12:26:26;;;;;;;0.77;0.77;;;17.40;99.90;;;;;;5032995;28;20482;-83
2023/07/26 12:28:54;;;;;;;0.80;0.80;;;17.10;99.90;;;;;;5033086;28;20994;-83
2023/07/26 12:31:23;;;;;;;0.80;0.80;;;16.90;99.90;;;;;;5032643;28;20490;-83
2023/07/26 12:34:00;;;;;;;0.90;0.80;;;16.70;99.90;;;;;;5033016;28;20446;-83
2023/07/26 12:36:29;;;;;;;1.33;0.77;;;16.60;99.90;;;;;;5032780;28;20970;-83
2023/07/26 12:38:57;;;;;;;1.50;0.90;;;16.60;99.90;;;;;;5034669;28;20939;-83
2023/07/26 12:41:25;;;;;;;1.40;0.90;;;16.60;99.90;;;;;;5036799;28;21048;-84
2023/07/26 12:43:53;;;;;;;1.10;1.00;;;16.60;99.90;;;;;;5037136;28;20458;-83
2023/07/26 12:46:20;;;;;;;1.93;0.80;;;16.80;99.90;;;;;;5036901;28;20541;-83
2023/07/26 12:48:47;;;;;;;1.30;1.00;;;16.90;99.90;;;;;;5036598;28;20849;-83
2023/07/26 12:51:15;;;;;;;0.83;0.67;;;17.00;99.90;;;;;;5036677;28;20455;-82